Time;durP1;ratioP1;P1;durP2;ratioP2;P2;SDS_P1;SDS_P2;PMS_P1;PMS_P2;Temp;Humidity;BMP_temperature;BMP_pressure;BME280_temperature;BME280_humidity;BME280_pressure;Samples;Min_cycle;Max_cycle;Signal;HPM_P1;HPM_P2
2022/12/26 00:01:09;;;;;;;10.48;7.07;;;;;;;8.73;100.00;100215.47;5034002;28;20062;-84
2022/12/26 00:03:38;;;;;;;12.60;6.57;;;;;;;8.72;100.00;100221.66;5052615;28;20031;-86
2022/12/26 00:06:14;;;;;;;11.68;6.45;;;;;;;8.70;100.00;100213.91;5071903;28;20039;-84
2022/12/26 00:08:43;;;;;;;12.65;7.47;;;;;;;8.75;100.00;100211.00;5051728;28;20119;-84
2022/12/26 00:11:16;;;;;;;10.00;6.80;;;;;;;8.78;100.00;100218.69;5037391;28;20036;-85
2022/12/26 00:13:45;;;;;;;12.27;6.88;;;;;;;8.78;100.00;100208.19;5033887;28;20053;-85
2022/12/26 00:16:17;;;;;;;11.05;6.22;;;;;;;8.78;100.00;100202.94;5034511;28;20051;-87
2022/12/26 00:18:45;;;;;;;9.00;6.95;;;;;;;8.78;100.00;100213.44;5052153;28;20079;-87
2022/12/26 00:21:13;;;;;;;11.25;6.13;;;;;;;8.77;100.00;100209.13;5032818;28;20048;-85
2022/12/26 00:23:41;;;;;;;11.18;6.03;;;;;;;8.77;100.00;100215.22;5047673;28;20066;-86
2022/12/26 00:26:14;;;;;;;9.15;6.55;;;;;;;8.81;100.00;100192.25;5043532;28;20585;-85
2022/12/26 00:28:42;;;;;;;10.95;6.22;;;;;;;8.84;100.00;100176.34;5047207;28;20055;-84
2022/12/26 00:31:11;;;;;;;8.93;6.32;;;;;;;8.83;100.00;100183.38;5050335;28;20071;-86
2022/12/26 00:33:39;;;;;;;12.52;7.10;;;;;;;8.80;100.00;100180.09;5041253;28;20044;-86
2022/12/26 00:36:09;;;;;;;10.65;7.30;;;;;;;8.83;100.00;100185.16;5034499;28;20044;-86
2022/12/26 00:38:37;;;;;;;12.68;7.50;;;;;;;8.80;100.00;100190.56;5058907;28;20048;-86
2022/12/26 00:41:05;;;;;;;10.70;7.00;;;;;;;8.81;100.00;100192.25;5039134;28;20048;-85
2022/12/26 00:43:33;;;;;;;12.95;7.57;;;;;;;8.85;100.00;100199.03;5043114;28;20047;-85
2022/12/26 00:46:00;;;;;;;9.07;6.88;;;;;;;8.86;100.00;100182.34;5046227;28;20024;-84
2022/12/26 00:48:28;;;;;;;12.02;6.40;;;;;;;8.86;100.00;100182.34;5058918;28;20063;-86
2022/12/26 00:50:56;;;;;;;11.73;6.95;;;;;;;8.84;100.00;100165.84;5041623;28;20055;-86
2022/12/26 00:53:24;;;;;;;11.85;7.15;;;;;;;8.82;100.00;100165.91;5032725;28;20135;-87
2022/12/26 00:55:51;;;;;;;13.48;7.88;;;;;;;8.83;100.00;100156.28;5053621;28;20033;-84
2022/12/26 00:58:20;;;;;;;13.52;7.47;;;;;;;8.80;100.00;100170.44;5059865;28;20028;-86
2022/12/26 01:00:47;;;;;;;12.00;7.20;;;;;;;8.83;100.00;100172.03;5038291;28;20114;-85
2022/12/26 01:03:16;;;;;;;11.82;7.75;;;;;;;8.83;100.00;100151.03;5053516;28;20104;-87
2022/12/26 01:05:45;;;;;;;9.65;6.22;;;;;;;8.89;100.00;100150.66;5061076;28;20025;-87
2022/12/26 01:08:13;;;;;;;9.40;6.25;;;;;;;8.89;100.00;100142.78;5029516;28;20062;-85
2022/12/26 01:10:50;;;;;;;14.68;6.63;;;;;;;8.84;100.00;100140.44;5042314;28;20067;-86
2022/12/26 01:13:17;;;;;;;9.93;5.88;;;;;;;8.89;100.00;100140.16;5062988;28;20048;-86
2022/12/26 01:15:49;;;;;;;8.23;5.32;;;;;;;8.92;100.00;100141.78;5048431;28;20065;-85
2022/12/26 01:18:17;;;;;;;7.32;5.03;;;;;;;8.91;100.00;100146.16;5065276;28;20041;-84
2022/12/26 01:20:44;;;;;;;7.13;4.50;;;;;;;8.90;100.00;100144.47;5036202;28;20718;-87
2022/12/26 01:23:12;;;;;;;9.68;5.05;;;;;;;8.91;100.00;100147.94;5034643;28;20041;-86
2022/12/26 01:25:39;;;;;;;8.13;5.13;;;;;;;8.92;100.00;100134.75;5062932;28;20067;-85
2022/12/26 01:28:27;;;;;;;6.53;5.00;;;;;;;8.96;100.00;100132.75;5038902;28;20084;-86
2022/12/26 01:30:54;;;;;;;8.75;4.53;;;;;;;8.97;100.00;100150.22;5044174;28;20074;-85
2022/12/26 01:33:22;;;;;;;8.73;5.22;;;;;;;9.00;100.00;100140.34;5065059;28;20044;-84
2022/12/26 01:35:51;;;;;;;7.05;5.18;;;;;;;9.03;100.00;100149.84;5037779;28;20067;-87
2022/12/26 01:38:19;;;;;;;8.07;5.13;;;;;;;9.01;100.00;100143.84;5047651;28;20040;-86
2022/12/26 01:40:48;;;;;;;12.70;5.70;;;;;;;9.03;100.00;100140.19;5039938;28;20059;-85
2022/12/26 01:43:16;;;;;;;8.27;5.65;;;;;;;9.06;100.00;100136.53;5048010;28;20568;-85
2022/12/26 01:45:48;;;;;;;10.70;5.47;;;;;;;9.05;100.00;100140.06;5051151;28;20144;-87
2022/12/26 01:48:24;;;;;;;8.48;5.20;;;;;;;9.08;100.00;100130.22;5050952;28;20406;-85
2022/12/26 01:50:51;;;;;;;;;;;;;;;9.11;100.00;100123.97;5029797;28;20514;-84
2022/12/26 01:53:20;;;;;;;7.45;4.32;;;;;;;9.18;100.00;100129.69;5040885;28;20012;-85
2022/12/26 01:55:55;;;;;;;5.45;4.30;;;;;;;9.10;100.00;100128.38;5059234;28;20214;-85
2022/12/26 01:58:30;;;;;;;5.75;4.38;;;;;;;9.05;100.00;100133.06;5053373;28;20060;-85
2022/12/26 02:00:58;;;;;;;9.57;4.75;;;;;;;9.04;100.00;100128.72;5033460;28;20537;-86
2022/12/26 02:06:12;;;;;;;5.63;4.68;;;;;;;9.10;100.00;100131.00;5069859;28;20069;-85
2022/12/26 02:08:40;;;;;;;7.05;4.88;;;;;;;9.09;100.00;100133.69;5029439;28;20048;-85
2022/12/26 02:11:18;;;;;;;5.07;4.47;;;;;;;9.02;100.00;100119.28;5045031;28;20032;-86
2022/12/26 02:13:45;;;;;;;8.07;4.90;;;;;;;9.05;100.00;100122.56;5073855;28;20055;-86
2022/12/26 02:16:16;;;;;;;7.82;4.70;;;;;;;9.04;100.00;100128.72;5062613;28;20503;-85
2022/12/26 02:18:44;;;;;;;9.68;5.38;;;;;;;9.09;100.00;100131.91;5032162;28;20109;-85
2022/12/26 02:21:33;;;;;;;7.97;4.55;;;;;;;9.08;100.00;100132.88;5050123;28;20048;-86
2022/12/26 02:24:29;;;;;;;6.93;4.47;;;;;;;9.08;100.00;100124.97;5047542;28;20033;-86
2022/12/26 02:27:29;;;;;;;5.07;4.23;;;;;;;9.12;100.00;100115.16;5057895;28;20032;-87
2022/12/26 02:30:10;;;;;;;6.13;4.22;;;;;;;9.16;100.00;100119.28;5048713;28;20074;-86
2022/12/26 02:33:03;;;;;;;6.53;4.80;;;;;;;9.19;100.00;100119.09;5070411;28;20071;-85
2022/12/26 02:35:47;;;;;;;5.60;4.28;;;;;;;9.22;100.00;100120.69;5078649;28;20621;-86
2022/12/26 02:38:20;;;;;;;6.40;4.50;;;;;;;9.26;100.00;100117.75;5061742;28;20068;-86
2022/12/26 02:40:55;;;;;;;5.15;4.35;;;;;;;9.29;100.00;100112.34;5050824;28;20138;-85
2022/12/26 02:43:44;;;;;;;7.53;4.75;;;;;;;9.23;100.00;100107.47;5069482;28;20049;-85
2022/12/26 03:13:09;;;;;;;6.22;4.53;;;;;;;9.25;100.00;100108.22;5063614;28;20047;-84
2022/12/26 03:15:27;;;;;;;5.47;4.28;;;;;;;9.43;100.00;100121.16;5068110;28;20048;-85
2022/12/26 03:18:04;;;;;;;5.80;4.72;;;;;;;9.41;100.00;100128.25;5059624;28;20025;-85
2022/12/26 03:20:34;;;;;;;7.45;4.75;;;;;;;9.39;100.00;100125.75;5046333;28;20056;-85
2022/12/26 03:23:06;;;;;;;4.68;4.18;;;;;;;9.37;100.00;100111.88;5049054;28;20032;-85
2022/12/26 03:28:27;;;;;;;5.97;4.22;;;;;;;9.44;100.00;100118.41;5068698;28;20055;-86
2022/12/26 03:30:56;;;;;;;6.60;4.18;;;;;;;9.48;100.00;100124.31;5039295;28;20056;-85
2022/12/26 03:36:40;;;;;;;6.05;3.97;;;;;;;9.52;100.00;100120.56;5075465;28;20045;-86
2022/12/26 04:44:06;;;;;;;8.68;3.92;;;;;;;9.73;100.00;100142.03;5055109;28;20052;-85
2022/12/26 04:46:36;;;;;;;5.68;4.10;;;;;;;9.66;100.00;100153.88;5060586;28;20040;-85
2022/12/26 04:51:54;;;;;;;8.27;4.00;;;;;;;9.74;100.00;100147.19;5068631;28;20044;-86
2022/12/26 04:54:22;;;;;;;5.13;3.60;;;;;;;9.70;100.00;100153.59;5048628;28;20040;-85
2022/12/26 04:56:49;;;;;;;6.47;3.65;;;;;;;9.72;100.00;100150.84;5029947;28;20064;-88
2022/12/26 04:59:17;;;;;;;7.40;3.70;;;;;;;9.75;100.00;100145.41;5056095;28;20044;-86
2022/12/26 05:10:24;;;;;;;6.35;4.07;;;;;;;9.80;100.00;100165.19;5051717;28;20044;-87
2022/12/26 05:12:52;;;;;;;7.38;3.83;;;;;;;9.79;100.00;100162.66;5050885;28;20056;-86
2022/12/26 05:15:20;;;;;;;5.78;3.80;;;;;;;9.85;100.00;100165.75;5056979;28;20084;-86
2022/12/26 05:29:07;;;;;;;4.72;3.95;;;;;;;9.84;100.00;100179.00;5058774;28;20057;-86
2022/12/26 05:31:35;;;;;;;5.63;3.88;;;;;;;9.84;100.00;100179.84;5045688;28;20057;-85
2022/12/26 05:34:11;;;;;;;6.45;4.30;;;;;;;9.84;100.00;100181.63;5056655;28;20070;-85
2022/12/26 05:36:55;;;;;;;7.57;3.90;;;;;;;9.85;100.00;100178.88;5074100;28;20047;-85
2022/12/26 05:39:23;;;;;;;6.65;4.25;;;;;;;9.88;100.00;100183.13;5067388;28;20032;-85
2022/12/26 05:41:50;;;;;;;4.85;3.75;;;;;;;9.82;100.00;100179.09;5074285;28;20089;-85
2022/12/26 05:44:20;;;;;;;7.75;4.20;;;;;;;9.84;100.00;100179.00;5045237;28;20063;-86
2022/12/26 05:46:48;;;;;;;6.90;4.10;;;;;;;9.87;100.00;100187.53;5059257;28;20052;-87
2022/12/26 05:49:16;;;;;;;7.00;4.10;;;;;;;9.88;100.00;100204.16;5052442;28;20048;-86
2022/12/26 05:51:43;;;;;;;5.03;3.78;;;;;;;9.90;100.00;100192.59;5047925;28;20049;-84
2022/12/26 05:54:10;;;;;;;6.70;3.67;;;;;;;9.87;100.00;100191.97;5047335;28;20045;-85
2022/12/26 05:56:38;;;;;;;6.20;4.00;;;;;;;9.92;100.00;100189.03;5051918;28;20049;-87
2022/12/26 05:59:11;;;;;;;5.68;3.90;;;;;;;9.92;100.00;100189.88;5061816;28;20056;-86
2022/12/26 06:01:39;;;;;;;5.45;3.67;;;;;;;9.97;100.00;100187.81;5036862;28;20071;-86
2022/12/26 06:04:07;;;;;;;4.40;3.60;;;;;;;9.98;100.00;100186.84;5043048;28;20083;-85
2022/12/26 06:06:34;;;;;;;8.55;3.65;;;;;;;9.98;100.00;100199.16;5051364;28;20052;-85
2022/12/26 06:09:01;;;;;;;6.97;3.72;;;;;;;9.95;100.00;100189.69;5072726;28;20029;-87
2022/12/26 06:11:29;;;;;;;5.13;3.72;;;;;;;9.93;100.00;100186.31;5054083;28;20061;-85
2022/12/26 06:13:57;;;;;;;4.80;3.22;;;;;;;9.92;100.00;100184.63;5042081;28;20039;-86
2022/12/26 06:16:24;;;;;;;6.63;3.47;;;;;;;9.93;100.00;100194.19;5054548;28;20045;-86
2022/12/26 06:18:53;;;;;;;4.57;3.85;;;;;;;9.91;100.00;100203.97;5055403;28;20040;-87
2022/12/26 06:21:21;;;;;;;4.40;3.38;;;;;;;9.92;100.00;100204.81;5058312;28;20036;-85
2022/12/26 06:23:49;;;;;;;5.32;3.13;;;;;;;9.98;100.00;100192.09;5062831;28;20028;-88
2022/12/26 06:26:16;;;;;;;6.72;3.83;;;;;;;9.99;100.00;100185.91;5043779;28;20041;-86
2022/12/26 06:28:47;;;;;;;6.43;2.83;;;;;;;9.98;100.00;100189.47;5057063;28;20250;-87
2022/12/26 06:31:21;;;;;;;3.92;3.38;;;;;;;9.95;100.00;100189.69;5052699;28;20040;-87
2022/12/26 06:33:50;;;;;;;5.28;3.25;;;;;;;9.95;100.00;100197.59;5059761;28;20044;-85
2022/12/26 06:36:20;;;;;;;6.28;3.92;;;;;;;9.95;100.00;100188.81;5040507;28;20044;-86
2022/12/26 06:38:47;;;;;;;5.20;3.22;;;;;;;9.94;100.00;100197.66;5055457;28;20318;-86
2022/12/26 06:41:16;;;;;;;5.72;3.60;;;;;;;9.96;100.00;100211.56;5037594;28;20794;-87
2022/12/26 06:43:44;;;;;;;4.18;3.42;;;;;;;10.02;100.00;100217.28;5050747;28;20064;-86
2022/12/26 06:46:14;;;;;;;4.65;3.13;;;;;;;10.03;100.00;100233.91;5025040;28;20240;-86
2022/12/26 06:48:42;;;;;;;5.53;3.10;;;;;;;9.98;100.00;100230.72;5045769;28;20033;-86
2022/12/26 06:51:12;;;;;;;5.30;3.47;;;;;;;10.07;100.00;100222.25;5048231;28;20479;-85
2022/12/26 06:53:39;;;;;;;5.43;3.03;;;;;;;10.06;100.00;100233.72;5052120;28;20041;-85
2022/12/26 06:56:09;;;;;;;5.10;3.40;;;;;;;10.03;100.00;100240.00;5050243;28;20513;-85
2022/12/26 06:58:37;;;;;;;5.85;3.50;;;;;;;10.05;100.00;100251.28;5064544;28;20056;-84
2022/12/26 07:01:16;;;;;;;5.30;3.10;;;;;;;10.01;100.00;100251.56;5044545;28;20045;-83
2022/12/26 07:03:44;;;;;;;4.28;2.83;;;;;;;10.05;100.00;100260.97;5033504;28;20611;-84
2022/12/26 07:06:29;;;;;;;5.63;3.10;;;;;;;10.02;100.00;100269.88;5033433;28;20385;-82
2022/12/26 07:08:59;;;;;;;4.00;3.20;;;;;;;10.11;100.00;100264.03;5045770;28;20029;-86
2022/12/26 07:11:30;;;;;;;5.43;2.83;;;;;;;10.09;100.00;100255.41;5082503;28;20036;-85
2022/12/26 07:13:58;;;;;;;4.03;3.10;;;;;;;10.07;100.00;100257.28;5062221;28;20048;-85
2022/12/26 07:16:25;;;;;;;4.85;3.45;;;;;;;10.04;100.00;100256.63;5055359;28;20025;-83
2022/12/26 07:18:54;;;;;;;6.50;3.30;;;;;;;10.05;100.00;100253.91;5039850;28;20079;-85
2022/12/26 07:21:23;;;;;;;4.88;3.30;;;;;;;10.09;100.00;100260.66;5047677;28;20037;-84
2022/12/26 07:23:50;;;;;;;6.03;3.38;;;;;;;10.08;100.00;100266.00;5054226;28;20046;-84
2022/12/26 07:26:18;;;;;;;4.55;3.25;;;;;;;10.10;100.00;100267.63;5051638;28;20121;-84
2022/12/26 07:28:45;;;;;;;5.70;3.30;;;;;;;10.11;100.00;100266.66;5049569;28;20048;-84
2022/12/26 07:31:17;;;;;;;3.47;3.00;;;;;;;10.04;100.00;100254.00;5035969;28;20044;-84
2022/12/26 07:33:48;;;;;;;5.35;3.20;;;;;;;10.02;100.00;100259.34;5054894;28;20048;-84
2022/12/26 07:36:16;;;;;;;6.38;3.00;;;;;;;10.06;100.00;100262.66;5034823;28;20060;-84
2022/12/26 07:38:43;;;;;;;4.97;3.55;;;;;;;10.07;100.00;100259.91;5036181;28;20087;-84
2022/12/26 07:43:57;;;;;;;4.63;3.15;;;;;;;10.03;100.00;100249.69;5035569;28;20123;-84
2022/12/26 07:46:24;;;;;;;5.88;3.25;;;;;;;10.01;100.00;100254.19;5024450;28;20690;-85
2022/12/26 07:48:51;;;;;;;4.10;3.35;;;;;;;10.02;100.00;100259.34;5054041;28;20136;-85
2022/12/26 07:51:19;;;;;;;5.45;3.53;;;;;;;9.99;100.00;100259.53;5053012;28;20068;-85
2022/12/26 07:53:47;;;;;;;4.38;3.50;;;;;;;9.96;100.00;100251.03;5041856;28;20102;-85
2022/12/26 07:56:15;;;;;;;5.13;3.65;;;;;;;10.00;100.00;100277.03;5034294;28;20334;-85
2022/12/26 07:58:42;;;;;;;6.53;3.63;;;;;;;9.98;100.00;100288.56;5041066;28;20162;-84
2022/12/26 08:01:10;;;;;;;7.63;4.13;;;;;;;10.02;100.00;100288.28;5038697;28;20063;-85
2022/12/26 08:03:37;;;;;;;5.85;3.53;;;;;;;9.98;100.00;100297.28;5035537;28;20060;-84
2022/12/26 08:06:05;;;;;;;4.35;3.75;;;;;;;9.93;100.00;100291.47;5031709;28;20048;-84
2022/12/26 08:08:32;;;;;;;5.85;3.30;;;;;;;9.99;100.00;100288.47;5048012;28;20048;-84
2022/12/26 08:11:01;;;;;;;6.15;4.00;;;;;;;9.97;100.00;100282.47;5050035;28;20063;-84
2022/12/26 08:13:30;;;;;;;3.72;3.20;;;;;;;9.99;100.00;100285.00;5031338;28;20057;-84
2022/12/26 08:15:59;;;;;;;8.15;3.67;;;;;;;10.00;100.00;100287.53;5027946;28;20116;-84
2022/12/26 08:18:26;;;;;;;3.95;3.13;;;;;;;9.96;100.00;100275.53;5061603;28;20051;-85
2022/12/26 08:20:54;;;;;;;6.75;3.33;;;;;;;9.99;100.00;100280.56;5075393;28;20032;-87
2022/12/26 08:23:22;;;;;;;6.13;4.22;;;;;;;10.00;100.00;100273.56;5036256;28;20029;-86
2022/12/26 08:25:49;;;;;;;4.75;3.22;;;;;;;9.98;100.00;100284.16;5033324;28;20046;-86
2022/12/26 08:28:16;;;;;;;4.97;3.45;;;;;;;9.99;100.00;100277.09;5030534;28;20060;-86
2022/12/26 08:30:45;;;;;;;4.65;3.22;;;;;;;10.01;100.00;100283.97;5060705;28;20048;-85
2022/12/26 08:33:12;;;;;;;4.47;3.05;;;;;;;10.04;100.00;100282.91;5054175;28;20056;-85
2022/12/26 08:35:40;;;;;;;5.35;3.35;;;;;;;10.07;100.00;100295.88;5054936;28;20064;-84
2022/12/26 08:38:07;;;;;;;3.88;3.30;;;;;;;10.06;100.00;100292.41;5035096;28;20076;-84
2022/12/26 08:40:34;;;;;;;5.78;3.15;;;;;;;10.07;100.00;100283.56;5034022;28;20127;-87
2022/12/26 08:43:11;;;;;;;6.65;3.35;;;;;;;10.05;100.00;100284.63;5027780;28;20048;-86
2022/12/26 08:46:18;;;;;;;6.03;3.17;;;;;;;10.05;100.00;100289.88;5033333;28;20116;-84
2022/12/26 08:48:46;;;;;;;6.38;3.22;;;;;;;10.05;100.00;100288.09;5049623;28;20073;-86
2022/12/26 08:51:21;;;;;;;4.65;3.15;;;;;;;10.06;100.00;100294.19;5044847;28;20092;-87
2022/12/26 08:53:49;;;;;;;4.50;3.10;;;;;;;10.00;100.00;100291.97;5040979;28;20143;-90
2022/12/26 08:56:20;;;;;;;5.47;3.38;;;;;;;9.99;100.00;100292.88;5042190;28;20049;-88
2022/12/26 08:58:48;;;;;;;5.13;2.78;;;;;;;10.00;100.00;100294.59;5026027;28;20059;-88
2022/12/26 09:01:19;;;;;;;3.70;2.40;;;;;;;10.03;100.00;100287.34;5059587;28;20155;-88
2022/12/26 09:03:50;;;;;;;4.38;2.90;;;;;;;10.05;100.00;100279.38;5026838;28;20112;-87
2022/12/26 09:06:17;;;;;;;6.55;2.88;;;;;;;10.06;100.00;100291.56;5047108;28;20060;-88
2022/12/26 09:08:45;;;;;;;4.35;3.17;;;;;;;10.04;100.00;100301.31;5042188;28;20127;-89
2022/12/26 09:11:17;;;;;;;3.80;2.83;;;;;;;10.06;100.00;100318.72;5027555;28;20044;-89
2022/12/26 09:13:45;;;;;;;3.97;2.75;;;;;;;10.09;100.00;100317.69;5059779;28;20072;-88
2022/12/26 09:16:15;;;;;;;5.68;2.63;;;;;;;10.21;100.00;100316.91;5050264;28;20197;-87
2022/12/26 09:18:44;;;;;;;4.15;2.92;;;;;;;10.20;100.00;100325.75;5026834;28;20049;-87
2022/12/26 09:21:12;;;;;;;4.13;3.25;;;;;;;10.15;100.00;100328.66;5039143;28;20041;-87
2022/12/26 09:23:41;;;;;;;7.63;3.65;;;;;;;10.14;100.00;100336.66;5040677;28;20044;-87
2022/12/26 09:26:16;;;;;;;7.00;3.38;;;;;;;10.13;100.00;100334.94;5040715;28;20470;-87
2022/12/26 09:28:45;;;;;;;5.60;3.17;;;;;;;10.17;100.00;100340.88;5025352;28;20074;-87
2022/12/26 09:31:19;;;;;;;4.60;3.22;;;;;;;10.16;100.00;100332.13;5056777;28;20063;-88
2022/12/26 09:33:47;;;;;;;5.68;3.20;;;;;;;10.14;100.00;100340.13;5022932;28;20072;-87
2022/12/26 09:36:18;;;;;;;4.60;3.10;;;;;;;10.17;100.00;100341.72;5024067;28;20067;-87
2022/12/26 09:38:49;;;;;;;6.38;3.20;;;;;;;10.20;100.00;100338.06;5032591;28;20053;-88
2022/12/26 09:41:41;;;;;;;4.55;3.10;;;;;;;10.22;100.00;100328.28;5040372;28;20060;-87
2022/12/26 09:44:20;;;;;;;6.63;3.28;;;;;;;10.18;100.00;100329.41;5037370;28;20099;-86
2022/12/26 09:47:31;;;;;;;3.45;2.85;;;;;;;10.24;100.00;100323.78;5024544;28;20133;-87
2022/12/26 09:50:03;;;;;;;4.63;3.47;;;;;;;10.34;100.00;100327.56;5064192;28;20104;-88
2022/12/26 09:53:04;;;;;;;4.13;3.15;;;;;;;10.37;100.00;100322.09;5042502;28;20060;-88
2022/12/26 09:55:53;;;;;;;5.30;2.97;;;;;;;10.33;100.00;100321.44;5062120;28;20016;-89
2022/12/26 09:58:29;;;;;;;7.97;3.80;;;;;;;10.34;100.00;100328.41;5073974;28;20033;-88
2022/12/26 10:01:12;;;;;;;4.28;2.90;;;;;;;10.33;100.00;100325.88;5024664;28;20075;-88
2022/12/26 10:03:55;;;;;;;5.22;3.20;;;;;;;10.29;100.00;100346.25;5025937;28;20041;-88
2022/12/26 10:06:33;;;;;;;4.47;3.15;;;;;;;10.32;100.00;100330.28;5023278;28;20107;-86
2022/12/26 10:09:07;;;;;;;4.80;3.22;;;;;;;10.29;100.00;100338.38;5025243;28;20056;-87
2022/12/26 10:11:49;;;;;;;3.78;3.00;;;;;;;10.34;100.00;100338.06;5055701;28;20127;-87
2022/12/26 10:14:25;;;;;;;5.90;3.13;;;;;;;10.29;100.00;100335.72;5024303;28;20067;-85
2022/12/26 10:16:59;;;;;;;3.88;3.25;;;;;;;10.35;100.00;100347.66;5046661;28;20098;-86
2022/12/26 10:19:44;;;;;;;3.42;2.65;;;;;;;10.33;100.00;100354.81;5034628;28;20489;-87
2022/12/26 10:22:44;;;;;;;6.75;3.00;;;;;;;10.27;100.00;100355.19;5043021;28;20072;-88
2022/12/26 10:25:22;;;;;;;5.07;3.65;;;;;;;10.30;100.00;100362.88;5070823;28;20108;-86
2022/12/26 10:27:54;;;;;;;3.25;2.70;;;;;;;10.35;100.00;100352.91;5032730;28;20032;-87
2022/12/26 10:30:26;;;;;;;5.18;3.17;;;;;;;10.37;100.00;100367.69;5031837;28;20044;-88
2022/12/26 10:32:58;;;;;;;3.42;2.90;;;;;;;10.36;100.00;100346.75;5055527;28;20666;-87
2022/12/26 10:35:36;;;;;;;3.20;2.67;;;;;;;10.30;100.00;100355.84;5064529;28;20040;-88
2022/12/26 10:38:15;;;;;;;4.82;2.58;;;;;;;10.32;100.00;100353.97;5048210;28;20075;-88
2022/12/26 10:40:43;;;;;;;4.85;3.50;;;;;;;10.32;100.00;100347.88;5062220;28;20067;-88
2022/12/26 10:43:17;;;;;;;3.88;2.85;;;;;;;10.30;100.00;100340.03;5050385;28;20048;-88
2022/12/26 10:46:07;;;;;;;4.93;3.28;;;;;;;10.28;100.00;100339.31;5041767;28;20072;-88
2022/12/26 10:48:35;;;;;;;3.65;2.85;;;;;;;10.30;100.00;100339.22;5043879;28;20086;-88
2022/12/26 10:51:02;;;;;;;3.83;2.90;;;;;;;10.34;100.00;100333.66;5044353;28;20467;-87
2022/12/26 10:53:29;;;;;;;3.00;2.67;;;;;;;10.33;100.00;100344.28;5028105;28;20051;-87
2022/12/26 10:55:58;;;;;;;4.13;2.80;;;;;;;10.25;100.00;100349.19;5025620;28;20049;-87
2022/12/26 10:58:32;;;;;;;6.28;2.67;;;;;;;10.30;100.00;100360.25;5034463;28;20064;-88
2022/12/26 11:01:35;;;;;;;3.58;2.33;;;;;;;10.27;100.00;100363.09;5047041;28;20090;-87
2022/12/26 11:04:16;;;;;;;3.30;2.42;;;;;;;10.26;100.00;100345.59;5049354;28;20040;-88
2022/12/26 11:07:07;;;;;;;4.72;2.90;;;;;;;10.20;100.00;100344.16;5029070;28;20075;-88
2022/12/26 11:09:44;;;;;;;4.07;2.80;;;;;;;10.18;100.00;100355.72;5026359;28;20091;-87
2022/12/26 11:12:20;;;;;;;4.78;2.55;;;;;;;10.17;100.00;100352.22;5009761;28;20113;-87
2022/12/26 11:14:48;;;;;;;3.40;2.25;;;;;;;10.12;100.00;100352.53;5044770;28;20075;-86
2022/12/26 11:17:27;;;;;;;2.75;2.10;;;;;;;10.18;100.00;100360.97;5030547;28;20117;-86
2022/12/26 11:20:09;;;;;;;3.78;2.78;;;;;;;10.13;100.00;100356.88;5041511;28;20087;-86
2022/12/26 11:22:36;;;;;;;2.78;2.13;;;;;;;10.09;100.00;100354.53;5041484;28;20128;-88
2022/12/26 11:25:14;;;;;;;2.97;2.28;;;;;;;10.11;100.00;100357.88;5037441;28;20537;-86
2022/12/26 11:27:48;;;;;;;2.75;2.13;;;;;;;10.15;100.00;100360.22;5042890;28;20048;-88
2022/12/26 11:30:23;;;;;;;3.10;1.83;;;;;;;10.05;100.00;100350.38;5039838;28;20495;-86
2022/12/26 11:33:01;;;;;;;;;;;;;;;10.08;100.00;100345.75;5033080;28;20172;-86
2022/12/26 11:35:46;;;;;;;2.63;2.13;;;;;;;10.05;100.00;100338.06;5052961;28;19959;-86
2022/12/26 11:38:33;;;;;;;2.65;2.42;;;;;;;9.99;100.00;100321.81;5042184;28;20045;-87
2022/12/26 11:41:30;;;;;;;3.17;2.20;;;;;;;9.96;100.00;100328.13;5041569;28;20037;-86
2022/12/26 11:44:04;;;;;;;3.50;2.70;;;;;;;10.02;100.00;100338.25;5022247;28;20091;-87
2022/12/26 11:46:36;;;;;;;2.65;2.22;;;;;;;10.00;100.00;100344.56;5073446;28;20203;-87
2022/12/26 11:49:04;;;;;;;2.78;2.20;;;;;;;10.05;100.00;100345.97;5039358;28;20037;-87
2022/12/26 11:51:39;;;;;;;2.58;2.08;;;;;;;10.03;100.00;100347.81;5043331;28;20047;-88
2022/12/26 11:54:19;;;;;;;2.97;2.50;;;;;;;10.07;100.00;100345.84;5023885;28;20064;-86
2022/12/26 11:56:47;;;;;;;3.63;2.70;;;;;;;10.06;100.00;100352.91;5023616;28;20265;-85
2022/12/26 11:59:20;;;;;;;3.25;2.53;;;;;;;10.05;100.00;100361.75;5018402;28;20507;-87
2022/12/26 12:01:49;;;;;;;3.38;2.63;;;;;;;10.01;100.00;100352.34;5032210;28;20129;-88
2022/12/26 12:04:19;;;;;;;2.75;2.10;;;;;;;9.99;100.00;100356.00;5007086;28;20041;-88
2022/12/26 12:07:10;;;;;;;2.85;2.10;;;;;;;10.00;100.00;100355.06;5021045;28;20041;-88
2022/12/26 12:09:58;;;;;;;3.92;2.90;;;;;;;10.18;100.00;100360.97;5043309;28;20049;-89
2022/12/26 12:12:35;;;;;;;3.38;2.80;;;;;;;10.12;100.00;100352.53;5063583;28;20044;-85
2022/12/26 12:15:30;;;;;;;6.85;2.28;;;;;;;10.15;100.00;100359.38;5061764;28;20384;-86
2022/12/26 12:18:15;;;;;;;2.72;2.40;;;;;;;10.08;100.00;100352.81;5063794;28;20045;-86
2022/12/26 12:21:15;;;;;;;3.22;2.55;;;;;;;10.02;100.00;100347.94;5043410;28;20109;-87
2022/12/26 12:24:21;;;;;;;3.03;2.53;;;;;;;10.03;100.00;100342.56;5063229;28;20127;-88
2022/12/26 12:27:13;;;;;;;3.90;2.45;;;;;;;10.00;100.00;100340.13;5054543;28;20151;-87
2022/12/26 12:29:59;;;;;;;4.43;2.92;;;;;;;9.98;100.00;100336.75;5033279;28;20133;-85
2022/12/26 12:32:45;;;;;;;;;;;;;;;9.99;100.00;100346.31;5058414;28;20043;-85
2022/12/26 12:35:44;;;;;;;4.03;3.10;;;;;;;9.98;100.00;100341.16;5040238;28;19924;-87
2022/12/26 12:38:31;;;;;;;3.55;3.00;;;;;;;9.96;100.00;100338.63;5029005;28;20415;-85
2022/12/26 12:41:18;;;;;;;;;;;;;;;9.98;100.00;100328.00;5055062;28;20097;-87
2022/12/26 12:44:06;;;;;;;4.20;3.40;;;;;;;9.97;100.00;100321.91;5058462;28;19908;-85
2022/12/26 12:47:17;;;;;;;3.22;2.88;;;;;;;9.97;100.00;100318.44;5065563;28;20059;-85
2022/12/26 12:50:09;;;;;;;8.00;3.33;;;;;;;9.97;100.00;100321.91;5047736;28;20044;-86
2022/12/26 12:52:47;;;;;;;4.43;3.45;;;;;;;9.96;100.00;100314.97;5043721;28;20227;-86
2022/12/26 12:55:30;;;;;;;4.20;3.15;;;;;;;9.98;100.00;100322.75;5039396;28;20356;-88
2022/12/26 12:58:03;;;;;;;5.07;3.42;;;;;;;9.99;100.00;100325.28;5051954;28;20068;-88
2022/12/26 13:00:44;;;;;;;7.10;3.47;;;;;;;10.05;100.00;100324.91;5054616;28;20506;-87
2022/12/26 13:03:26;;;;;;;4.25;3.10;;;;;;;10.10;100.00;100332.53;5027347;28;20045;-85
2022/12/26 13:06:03;;;;;;;5.55;3.47;;;;;;;10.09;100.00;100328.22;5045611;28;20056;-85
2022/12/26 13:08:50;;;;;;;4.20;3.33;;;;;;;10.05;100.00;100327.56;5046347;28;20055;-84
2022/12/26 13:11:30;;;;;;;3.88;3.13;;;;;;;10.07;100.00;100336.19;5026675;28;20043;-87
2022/12/26 13:14:13;;;;;;;4.30;3.17;;;;;;;10.15;100.00;100331.28;5037233;28;20120;-86
2022/12/26 13:16:44;;;;;;;4.30;3.58;;;;;;;10.09;100.00;100331.69;5051841;28;20079;-86
2022/12/26 13:19:18;;;;;;;3.83;3.22;;;;;;;10.03;100.00;100318.91;5034798;28;20041;-87
2022/12/26 13:21:46;;;;;;;5.03;3.22;;;;;;;10.02;100.00;100327.72;5031271;28;20040;-87
2022/12/26 13:24:22;;;;;;;4.63;3.22;;;;;;;10.07;100.00;100324.81;5045417;28;20052;-86
2022/12/26 13:27:01;;;;;;;6.97;3.45;;;;;;;10.10;100.00;100325.47;5057226;28;20048;-85
2022/12/26 13:29:38;;;;;;;8.02;3.70;;;;;;;10.14;100.00;100326.16;5037634;28;20072;-85
2022/12/26 13:32:19;;;;;;;5.88;3.08;;;;;;;10.20;100.00;100332.81;5037236;28;20071;-86
2022/12/26 13:34:48;;;;;;;3.97;3.50;;;;;;;10.19;100.00;100331.13;5053369;28;20048;-85
2022/12/26 13:37:34;;;;;;;4.47;3.17;;;;;;;10.19;100.00;100331.13;5028445;28;20063;-86
2022/12/26 13:40:04;;;;;;;4.70;3.50;;;;;;;10.20;100.00;100330.16;5063721;28;20133;-85
2022/12/26 13:45:42;;;;;;;3.45;3.15;;;;;;;10.48;100.00;100339.84;5040500;28;20040;-85
2022/12/26 13:48:15;;;;;;;3.85;2.85;;;;;;;10.49;100.00;100336.25;5074045;28;20017;-86
2022/12/26 13:50:45;;;;;;;5.38;2.75;;;;;;;10.51;100.00;100339.66;5037506;28;20076;-86
2022/12/26 13:53:25;;;;;;;5.68;3.45;;;;;;;10.51;100.00;100337.88;5059645;28;20044;-86
2022/12/26 13:56:18;;;;;;;4.45;3.17;;;;;;;10.52;100.00;100339.53;5057573;28;20071;-85
2022/12/26 13:58:54;;;;;;;8.05;3.25;;;;;;;10.44;100.00;100339.19;5028143;28;20059;-84
2022/12/26 14:01:47;;;;;;;3.70;2.67;;;;;;;10.36;100.00;100344.94;5074719;28;20034;-84